Terminal Aerodrome Forecast
Issued by NWS

Home | Current Version | Previous Version | Text Only | Print | Product List | Glossary Off
Versions: 1 2 3 4 5 6 7 8 9 10 11 12 13 14

000
FTUS43 KMPX 281120
TAFRNH
TAF
KRNH 281120Z 2812/0112 16006KT P6SM SKC
     FM282000 17011KT P6SM SCT040 BKN090
     FM010300 17009KT P6SM OVC030
     FM011000 21006KT P6SM SCT022 OVC030=

USA.gov is the U.S. government's official web portal to all federal, state and local government web resources and services.